createdAt,value
2022-09-26T04:08:27.003Z,100.00
2022-09-26T04:11:29.890Z,100.00
2022-09-26T04:14:32.749Z,100.00
2022-09-26T04:17:35.125Z,100.00
2022-09-26T04:20:37.677Z,100.00
2022-09-26T04:23:41.085Z,100.00
2022-09-26T04:26:44.467Z,99.79
2022-09-26T04:29:46.798Z,100.00
2022-09-26T04:32:49.069Z,100.00
2022-09-26T04:35:52.957Z,99.98
2022-09-26T04:38:55.093Z,100.00
2022-09-26T04:41:58.434Z,99.88
2022-09-26T04:45:00.483Z,100.00
2022-09-26T04:48:03.031Z,99.86
2022-09-26T04:51:09.286Z,99.05
2022-09-26T04:54:12.362Z,100.00
2022-09-26T04:57:19.371Z,98.80
2022-09-26T05:00:23.259Z,99.01
2022-09-26T05:03:25.809Z,98.87
2022-09-26T05:06:28.437Z,99.33
2022-09-26T05:09:35.571Z,100.00
2022-09-26T05:12:41.424Z,99.54
2022-09-26T05:15:43.497Z,99.83
2022-09-26T05:18:52.242Z,98.82
2022-09-26T05:21:56.717Z,99.30
2022-09-26T05:25:17.978Z,100.00
2022-09-26T05:28:20.060Z,100.00
2022-09-26T05:31:25.428Z,99.26
2022-09-26T05:34:28.075Z,98.06
2022-09-26T05:37:31.006Z,98.45
2022-09-26T05:40:52.055Z,97.74
2022-09-26T05:43:54.634Z,97.36
2022-09-26T05:46:57.473Z,99.40
2022-09-26T05:50:01.117Z,100.00
2022-09-26T05:53:04.550Z,100.00
2022-09-26T05:56:12.748Z,100.00
2022-09-26T05:59:23.218Z,100.00
2022-09-26T06:02:26.909Z,100.00
2022-09-26T06:05:31.516Z,100.00
2022-09-26T06:08:36.972Z,99.34
2022-09-26T06:11:39.932Z,99.80
2022-09-26T06:14:46.904Z,100.00
2022-09-26T06:17:57.686Z,98.98
2022-09-26T06:21:04.582Z,99.05
2022-09-26T06:24:08.519Z,99.33
2022-09-26T06:27:10.810Z,100.00
2022-09-26T06:30:13.927Z,100.00
2022-09-26T06:33:16.277Z,100.00
2022-09-26T06:36:22.596Z,100.00
2022-09-26T06:39:31.428Z,98.63
2022-09-26T06:42:37.826Z,98.06
2022-09-26T06:45:45.815Z,99.32
2022-09-26T06:48:48.225Z,99.12
2022-09-26T06:51:50.354Z,98.39
2022-09-26T06:54:56.426Z,99.31
2022-09-26T06:57:58.685Z,98.99
2022-09-26T07:01:02.089Z,98.67
2022-09-26T07:04:05.871Z,98.39
2022-09-26T07:07:08.629Z,97.66
2022-09-26T07:10:10.983Z,96.98
2022-09-26T07:13:15.659Z,98.06
2022-09-26T07:16:18.312Z,98.76
2022-09-26T07:19:21.644Z,99.29
2022-09-26T07:22:25.944Z,99.03
2022-09-26T07:25:31.287Z,99.20
2022-09-26T07:28:34.025Z,99.50
2022-09-26T07:31:37.113Z,99.41
2022-09-26T07:34:43.229Z,99.52
2022-09-26T07:37:52.780Z,100.00
2022-09-26T07:40:55.366Z,100.00
2022-09-26T07:47:42.408Z,99.92
2022-09-26T07:50:46.360Z,100.00
2022-09-26T07:53:48.935Z,100.00
2022-09-26T07:56:53.691Z,100.00
2022-09-26T07:59:55.844Z,100.00
2022-09-26T08:03:01.405Z,100.00
2022-09-26T08:06:04.961Z,100.00
2022-09-26T08:09:07.967Z,100.00
2022-09-26T08:12:15.071Z,100.00
2022-09-26T08:15:21.321Z,100.00
2022-09-26T08:18:25.201Z,100.00
2022-09-26T08:21:27.285Z,100.00
2022-09-26T08:24:30.534Z,100.00
2022-09-26T08:27:34.141Z,100.00
2022-09-26T08:30:36.963Z,100.00
2022-09-26T08:33:39.443Z,100.00
2022-09-26T08:36:41.838Z,100.00
2022-09-26T08:39:44.930Z,100.00
2022-09-26T08:43:11.105Z,100.00
2022-09-26T08:46:29.642Z,100.00
2022-09-26T08:49:51.229Z,100.00
2022-09-26T08:53:15.846Z,100.00
2022-09-26T08:56:22.791Z,100.00
2022-09-26T08:59:31.420Z,100.00
2022-09-26T09:03:12.760Z,100.00
2022-09-26T09:06:18.484Z,100.00
2022-09-26T09:09:21.787Z,100.00
2022-09-26T09:12:39.287Z,100.00
2022-09-26T09:16:12.899Z,100.00
2022-09-26T09:19:38.885Z,100.00
2022-09-26T09:23:07.545Z,100.00
2022-09-26T09:30:17.154Z,100.00
2022-09-26T09:33:29.457Z,98.26
2022-09-26T09:36:41.896Z,98.00
2022-09-26T09:39:48.233Z,96.85
2022-09-26T09:43:26.821Z,97.57
2022-09-26T09:46:29.440Z,99.35
2022-09-26T09:49:32.081Z,96.55
2022-09-26T09:53:10.005Z,97.64
2022-09-26T09:56:32.989Z,94.10
2022-09-26T10:00:09.995Z,91.38
2022-09-26T10:03:29.541Z,92.89
2022-09-26T10:06:46.280Z,90.37
2022-09-26T10:09:51.735Z,91.54
2022-09-26T10:13:03.621Z,88.73
2022-09-26T10:16:09.873Z,85.07
2022-09-26T10:19:13.943Z,83.65
2022-09-26T10:22:19.714Z,84.89
2022-09-26T10:25:26.243Z,84.44
2022-09-26T10:28:30.098Z,83.89
2022-09-26T10:31:42.334Z,82.54
2022-09-26T10:35:04.024Z,83.25
2022-09-26T10:38:18.313Z,86.01
2022-09-26T10:41:25.325Z,86.74
2022-09-26T10:44:33.947Z,87.91
2022-09-26T10:47:40.690Z,87.94
2022-09-26T10:50:52.176Z,86.38
2022-09-26T10:54:13.036Z,86.93
2022-09-26T10:57:23.213Z,83.91
2022-09-26T11:00:37.364Z,89.87
2022-09-26T11:03:43.966Z,87.88
2022-09-26T11:06:49.606Z,87.28
2022-09-26T11:09:56.923Z,88.81
2022-09-26T11:13:22.792Z,88.18
2022-09-26T11:16:27.089Z,89.80
2022-09-26T11:19:54.644Z,91.00
2022-09-26T11:23:19.755Z,91.55
2022-09-26T11:26:54.665Z,85.26
2022-09-26T11:30:11.508Z,84.57
2022-09-26T11:33:18.698Z,84.17
2022-09-26T11:37:00.696Z,82.67
2022-09-26T11:40:12.286Z,84.99
2022-09-26T11:43:27.625Z,81.62
2022-09-26T11:46:58.966Z,81.72
2022-09-26T11:50:20.285Z,82.53
2022-09-26T11:53:46.044Z,81.63
2022-09-26T11:57:31.879Z,82.48
2022-09-26T12:00:58.489Z,79.97
2022-09-26T12:04:32.677Z,81.29
2022-09-26T12:07:44.551Z,78.90
2022-09-26T12:11:05.472Z,77.56
2022-09-26T12:14:36.025Z,77.92
2022-09-26T12:18:05.998Z,76.93
2022-09-26T12:21:34.255Z,76.38
2022-09-26T12:24:51.502Z,75.52
2022-09-26T12:28:19.766Z,73.28
2022-09-26T12:31:54.760Z,73.20
2022-09-26T12:35:21.102Z,73.63
2022-09-26T12:38:44.847Z,71.57
2022-09-26T12:42:02.651Z,71.65
2022-09-26T12:45:31.746Z,71.47
2022-09-26T12:49:11.477Z,72.24
2022-09-26T12:52:39.839Z,72.17
2022-09-26T12:55:51.245Z,72.39
2022-09-26T12:59:29.105Z,70.06
2022-09-26T13:02:46.796Z,68.79
2022-09-26T13:06:14.857Z,70.55
2022-09-26T13:09:31.693Z,65.96
2022-09-26T13:12:47.203Z,69.56
2022-09-26T13:16:00.001Z,67.99
2022-09-26T13:19:16.443Z,71.74
2022-09-26T13:22:21.976Z,70.81
2022-09-26T13:25:49.394Z,72.00
2022-09-26T13:29:17.217Z,71.14
2022-09-26T13:32:34.115Z,73.00
2022-09-26T13:35:41.049Z,70.10
2022-09-26T13:39:00.007Z,73.86
2022-09-26T13:42:11.144Z,74.63
2022-09-26T13:45:33.403Z,74.98
2022-09-26T13:48:46.153Z,75.89
2022-09-26T13:52:01.178Z,72.67
2022-09-26T13:55:10.836Z,72.46
2022-09-26T13:58:21.444Z,74.42
2022-09-26T14:01:27.505Z,72.29
2022-09-26T14:04:36.421Z,72.11
2022-09-26T14:07:57.133Z,75.73
2022-09-26T14:11:11.841Z,73.06
2022-09-26T14:14:16.810Z,70.87
2022-09-26T14:17:44.915Z,73.59
2022-09-26T14:20:57.224Z,74.67
2022-09-26T14:24:21.160Z,74.10
2022-09-26T14:27:36.120Z,75.05
2022-09-26T14:30:38.563Z,75.59
2022-09-26T14:33:42.949Z,75.24
2022-09-26T14:36:46.881Z,71.05
2022-09-26T14:40:00.068Z,72.47
2022-09-26T14:43:17.479Z,72.58
2022-09-26T14:46:25.606Z,70.84
2022-09-26T14:49:28.830Z,73.02
2022-09-26T14:52:32.673Z,71.02
2022-09-26T14:55:34.995Z,72.65
2022-09-26T14:58:37.173Z,70.36
2022-09-26T15:01:39.868Z,70.63
2022-09-26T15:04:43.544Z,71.89
2022-09-26T15:07:53.990Z,70.62
2022-09-26T15:10:57.952Z,71.14
2022-09-26T15:14:10.858Z,68.85
2022-09-26T15:17:18.529Z,70.69
2022-09-26T15:20:22.698Z,70.93
2022-09-26T15:23:32.156Z,73.14
2022-09-26T15:26:36.724Z,73.10
2022-09-26T15:29:48.444Z,72.22
2022-09-26T15:32:56.838Z,71.25
2022-09-26T15:36:01.139Z,72.10
2022-09-26T15:39:32.145Z,73.10
2022-09-26T15:42:53.004Z,74.64
2022-09-26T15:45:58.800Z,76.90
2022-09-26T15:49:00.894Z,74.19
2022-09-26T15:52:04.650Z,76.84
2022-09-26T15:55:09.244Z,74.06
